»·PEaware :: QXE2486 KSAN-KSBA

QXE2486 :: KSAN-KSBA

FLIGHT INFORMATION

Flight Status: Arrived
Operator:
Horizon Air
More flights by this operator :: More flights under this callsign
Pilot: Anonymous 3903 (3903)
Aircraft: DEHAVILLAND DASH 8 400
(DH8D)
More flights by this aircraft type
Origin: KSAN San Diego Intl-Lindbergh
United States
Destination: KSBA Santa Barbara Mun
United States
More flights between these airports :: More routes between these airports
Route: +PEBLE6 SXC V208 VTU VTU282R KWANG
File this flight plan on PilotEdge
Remarks: TEC route SANN36
Altitude:
(Current/Filed)
8,000ft
Speed:
(Current/Filed)
350kts
Departed: 11-Jan-16 09:39 PM
Arrived: 11-Jan-16 10:32 PM
Distance/Time
Traveled:
167nm/0:53
Distance/Time
To Go:
Arrived

Flight Plot

Page will automatically refresh every two minutes.


Map Options




Map Legend


Flown Route
Filed Route
Departure Airport
Arrival Airport
Navaid (VOR, NDB)
Fix

Horizontal Profiles

Position Reports

Time Latitude Longitude Heading Altitude Ground
Speed
11-Jan-16 20:56 32.738996 -117.185664 5 22ft 0kts
11-Jan-16 20:57 32.738996 -117.185664 5 22ft 0kts
11-Jan-16 20:58 32.738996 -117.185664 5 22ft 0kts
11-Jan-16 20:59 32.738996 -117.185664 5 22ft 0kts
11-Jan-16 21:00 32.738996 -117.185664 5 22ft 0kts
11-Jan-16 21:01 32.738996 -117.185664 5 22ft 0kts
11-Jan-16 21:02 32.738996 -117.185664 5 22ft 0kts
11-Jan-16 21:03 32.738996 -117.185664 5 22ft 0kts
11-Jan-16 21:04 32.738996 -117.185664 5 22ft 0kts
11-Jan-16 21:05 32.738996 -117.185664 5 22ft 0kts
11-Jan-16 21:06 32.738996 -117.185664 5 22ft 0kts
11-Jan-16 21:07 32.738996 -117.185664 5 22ft 0kts
11-Jan-16 21:08 32.738996 -117.185664 5 22ft 0kts
11-Jan-16 21:09 32.738996 -117.185664 5 22ft 0kts
11-Jan-16 21:10 32.738996 -117.185664 5 22ft 0kts
11-Jan-16 21:11 32.738996 -117.185664 5 22ft 0kts
11-Jan-16 21:12 32.738996 -117.185664 5 22ft 0kts
11-Jan-16 21:13 32.738996 -117.185664 5 22ft 0kts
11-Jan-16 21:14 32.738996 -117.185664 5 22ft 0kts
11-Jan-16 21:15 32.738994 -117.185664 5 22ft 0kts
11-Jan-16 21:16 32.738993 -117.185664 5 22ft 0kts
11-Jan-16 21:17 32.738235 -117.185760 5 22ft 3kts
11-Jan-16 21:18 32.737713 -117.185820 355 22ft 0kts
11-Jan-16 21:19 32.737713 -117.185820 355 22ft 0kts
11-Jan-16 21:20 32.737070 -117.185680 150 22ft 15kts
11-Jan-16 21:21 32.734162 -117.183575 151 22ft 10kts
11-Jan-16 21:22 32.733482 -117.183117 149 22ft 0kts
11-Jan-16 21:23 32.733482 -117.183116 149 22ft 0kts
11-Jan-16 21:24 32.733482 -117.183116 149 22ft 0kts
11-Jan-16 21:25 32.733482 -117.183116 149 22ft 0kts
11-Jan-16 21:26 32.733309 -117.182997 150 22ft 8kts
11-Jan-16 21:27 32.731798 -117.178577 105 22ft 19kts
11-Jan-16 21:28 32.731052 -117.175439 112 22ft 0kts
11-Jan-16 21:29 32.731039 -117.175402 112 22ft 0kts
11-Jan-16 21:30 32.731034 -117.175387 112 22ft 0kts
11-Jan-16 21:31 32.731034 -117.175387 112 22ft 0kts
11-Jan-16 21:32 32.730972 -117.175265 127 22ft 4kts
11-Jan-16 21:33 32.730285 -117.176175 285 22ft 0kts
11-Jan-16 21:34 32.739131 -117.207819 296 1338ft 148kts
11-Jan-16 21:35 32.771113 -117.259026 308 3623ft 219kts
11-Jan-16 21:36 32.805631 -117.322231 300 6907ft 234kts
11-Jan-16 21:37 32.837913 -117.397802 296 8046ft 277kts
11-Jan-16 21:38 32.888276 -117.460739 330 7990ft 267kts
11-Jan-16 21:39 32.951592 -117.507277 330 7985ft 268kts
11-Jan-16 21:40 33.010400 -117.561175 308 7988ft 272kts
11-Jan-16 21:41 33.054352 -117.635180 306 7991ft 273kts
11-Jan-16 21:42 33.098541 -117.708701 308 7991ft 271kts
11-Jan-16 21:43 33.145302 -117.780046 310 7991ft 272kts
11-Jan-16 21:44 33.188804 -117.854010 294 7990ft 274kts
11-Jan-16 21:45 33.216458 -117.939083 292 7996ft 275kts
11-Jan-16 21:46 33.244557 -118.024214 292 8000ft 276kts
11-Jan-16 21:47 33.272897 -118.109777 292 8001ft 276kts
11-Jan-16 21:48 33.301096 -118.195083 292 8003ft 275kts
11-Jan-16 21:49 33.329075 -118.279950 292 7996ft 271kts
11-Jan-16 21:50 33.356836 -118.364372 292 7998ft 273kts
11-Jan-16 21:51 33.391626 -118.444751 311 7999ft 271kts
11-Jan-16 21:52 33.440723 -118.513414 312 7998ft 270kts
11-Jan-16 21:53 33.489310 -118.582425 311 7998ft 271kts
11-Jan-16 21:54 33.537864 -118.651789 311 7998ft 271kts
11-Jan-16 21:55 33.586072 -118.720801 311 7992ft 270kts
11-Jan-16 21:56 33.634565 -118.790344 311 7982ft 270kts
11-Jan-16 21:57 33.682720 -118.859541 311 7983ft 269kts
11-Jan-16 21:58 33.730713 -118.928632 311 7985ft 268kts
11-Jan-16 21:59 33.778697 -118.997007 318 7983ft 267kts
11-Jan-16 22:00 33.847951 -119.021138 354 7988ft 260kts
11-Jan-16 22:01 33.919767 -119.029213 356 7991ft 259kts
11-Jan-16 22:02 33.982960 -119.035613 356 7993ft 258kts
11-Jan-16 22:03 34.054759 -119.043171 356 7996ft 260kts
11-Jan-16 22:04 34.107421 -119.058336 323 8002ft 261kts
11-Jan-16 22:05 34.149462 -119.131149 299 7996ft 267kts
11-Jan-16 22:06 34.183245 -119.211035 297 7757ft 263kts
11-Jan-16 22:07 34.215438 -119.288771 297 6315ft 251kts
11-Jan-16 22:08 34.245975 -119.362069 297 6005ft 239kts
11-Jan-16 22:09 34.275562 -119.433493 297 5999ft 238kts
11-Jan-16 22:10 34.304533 -119.505770 286 6132ft 238kts
11-Jan-16 22:11 34.304402 -119.577217 266 6225ft 242kts
11-Jan-16 22:12 34.297981 -119.657421 265 5463ft 229kts
11-Jan-16 22:13 34.292187 -119.728515 265 3708ft 199kts
11-Jan-16 22:14 34.286934 -119.794942 265 3933ft 207kts
11-Jan-16 22:15 34.281424 -119.863472 265 3990ft 201kts
11-Jan-16 22:16 34.275955 -119.930912 265 3995ft 202kts
11-Jan-16 22:17 34.270673 -119.995579 265 3992ft 191kts
11-Jan-16 22:18 34.267984 -120.052167 289 3984ft 189kts
11-Jan-16 22:19 34.309416 -120.080074 348 3521ft 167kts
11-Jan-16 22:20 34.355252 -120.086822 355 3493ft 165kts
11-Jan-16 22:21 34.400767 -120.086343 23 3493ft 164kts
11-Jan-16 22:22 34.419301 -120.037118 77 2822ft 158kts
11-Jan-16 22:23 34.424582 -119.985312 84 2211ft 142kts
11-Jan-16 22:24 34.425787 -119.948165 87 1553ft 123kts
11-Jan-16 22:25 34.426514 -119.907183 87 916ft 117kts
11-Jan-16 22:26 34.427246 -119.867846 88 290ft 116kts
11-Jan-16 22:27 34.427819 -119.839486 88 17ft 24kts
11-Jan-16 22:28 34.426507 -119.836596 168 17ft 3kts
11-Jan-16 22:29 34.426001 -119.836654 189 17ft 0kts
11-Jan-16 22:30 34.426001 -119.836654 189 17ft 0kts
11-Jan-16 22:31 34.425960 -119.836663 189 17ft 0kts
11-Jan-16 22:32 34.425960 -119.836663 189 17ft 0kts
11-Jan-16 22:33 34.425960 -119.836663 189 17ft 0kts
11-Jan-16 22:34 34.425960 -119.836663 189 17ft 0kts
11-Jan-16 22:35 34.425960 -119.836663 189 17ft 0kts
11-Jan-16 22:36 34.425960 -119.836663 189 17ft 0kts
11-Jan-16 22:37 34.425960 -119.836663 189 17ft 0kts
11-Jan-16 22:38 34.425960 -119.836663 189 17ft 0kts

Navigation Log

Ident Type
Flight plan parsing failed, navigation log unavailable